sensor_id;sensor_type;location;lat;lon;timestamp;pressure;altitude;pressure_sealevel;temperature;humidity
52745;BME280;38637;49.984;20.426;2023-05-20T00:00:45;100254.72;;;11.29;100.00
52745;BME280;38637;49.984;20.426;2023-05-20T00:03:13;100255.22;;;11.26;100.00
52745;BME280;38637;49.984;20.426;2023-05-20T00:05:38;100258.22;;;11.24;100.00
52745;BME280;38637;49.984;20.426;2023-05-20T00:08:03;100252.75;;;11.24;100.00
52745;BME280;38637;49.984;20.426;2023-05-20T00:10:31;100251.66;;;11.25;100.00
52745;BME280;38637;49.984;20.426;2023-05-20T00:12:56;100253.56;;;11.25;100.00
52745;BME280;38637;49.984;20.426;2023-05-20T00:15:22;100254.38;;;11.25;100.00
52745;BME280;38637;49.984;20.426;2023-05-20T00:17:47;100251.91;;;11.24;100.00
52745;BME280;38637;49.984;20.426;2023-05-20T00:20:12;100248.09;;;11.25;100.00
52745;BME280;38637;49.984;20.426;2023-05-20T00:22:38;100249.84;;;11.31;100.00
52745;BME280;38637;49.984;20.426;2023-05-20T00:25:03;100255.09;;;11.33;100.00
52745;BME280;38637;49.984;20.426;2023-05-20T00:27:29;100248.28;;;11.35;100.00
52745;BME280;38637;49.984;20.426;2023-05-20T00:29:54;100247.88;;;11.26;100.00
52745;BME280;38637;49.984;20.426;2023-05-20T00:32:19;100257.13;;;11.25;100.00
52745;BME280;38637;49.984;20.426;2023-05-20T00:34:53;100248.59;;;11.22;100.00
52745;BME280;38637;49.984;20.426;2023-05-20T00:37:19;100249.34;;;11.17;100.00
52745;BME280;38637;49.984;20.426;2023-05-20T00:39:44;100251.22;;;11.17;100.00
52745;BME280;38637;49.984;20.426;2023-05-20T00:42:09;100238.63;;;11.16;100.00
52745;BME280;38637;49.984;20.426;2023-05-20T00:44:35;100246.22;;;11.14;100.00
52745;BME280;38637;49.984;20.426;2023-05-20T00:47:00;100241.63;;;11.14;100.00
52745;BME280;38637;49.984;20.426;2023-05-20T00:49:25;100246.38;;;11.07;100.00
52745;BME280;38637;49.984;20.426;2023-05-20T00:51:50;100247.22;;;11.08;100.00
52745;BME280;38637;49.984;20.426;2023-05-20T00:54:16;100251.03;;;11.07;100.00
52745;BME280;38637;49.984;20.426;2023-05-20T00:56:41;100240.91;;;11.07;100.00
52745;BME280;38637;49.984;20.426;2023-05-20T00:59:06;100243.56;;;11.02;100.00
52745;BME280;38637;49.984;20.426;2023-05-20T01:01:32;100242.16;;;10.99;100.00
52745;BME280;38637;49.984;20.426;2023-05-20T01:03:58;100237.16;;;10.96;100.00
52745;BME280;38637;49.984;20.426;2023-05-20T01:06:23;100239.56;;;10.93;100.00
52745;BME280;38637;49.984;20.426;2023-05-20T01:08:48;100241.44;;;10.92;100.00
52745;BME280;38637;49.984;20.426;2023-05-20T01:11:15;100227.22;;;10.90;100.00
52745;BME280;38637;49.984;20.426;2023-05-20T01:13:46;100224.47;;;10.90;100.00
52745;BME280;38637;49.984;20.426;2023-05-20T01:16:13;100225.16;;;10.97;100.00
52745;BME280;38637;49.984;20.426;2023-05-20T01:18:38;100223.94;;;11.05;100.00
52745;BME280;38637;49.984;20.426;2023-05-20T01:21:06;100225.13;;;11.09;100.00
52745;BME280;38637;49.984;20.426;2023-05-20T01:23:38;100218.56;;;11.10;100.00
52745;BME280;38637;49.984;20.426;2023-05-20T01:26:04;100225.22;;;11.14;100.00
52745;BME280;38637;49.984;20.426;2023-05-20T01:28:30;100229.72;;;11.20;100.00
52745;BME280;38637;49.984;20.426;2023-05-20T01:30:55;100219.59;;;11.21;100.00
52745;BME280;38637;49.984;20.426;2023-05-20T01:33:22;100231.34;;;11.21;100.00
52745;BME280;38637;49.984;20.426;2023-05-20T01:35:49;100222.66;;;11.24;100.00
52745;BME280;38637;49.984;20.426;2023-05-20T01:38:15;100225.41;;;11.24;100.00
52745;BME280;38637;49.984;20.426;2023-05-20T01:40:42;100221.91;;;11.29;100.00
52745;BME280;38637;49.984;20.426;2023-05-20T01:43:08;100226.66;;;11.34;100.00
52745;BME280;38637;49.984;20.426;2023-05-20T01:45:33;100218.69;;;11.32;100.00
52745;BME280;38637;49.984;20.426;2023-05-20T01:47:59;100218.84;;;11.25;100.00
52745;BME280;38637;49.984;20.426;2023-05-20T01:50:25;100212.56;;;11.25;100.00
52745;BME280;38637;49.984;20.426;2023-05-20T01:52:50;100224.91;;;11.27;100.00
52745;BME280;38637;49.984;20.426;2023-05-20T01:55:16;100219.44;;;11.27;100.00
52745;BME280;38637;49.984;20.426;2023-05-20T01:57:41;100220.88;;;11.30;100.00
52745;BME280;38637;49.984;20.426;2023-05-20T02:00:06;100209.16;;;11.35;100.00
52745;BME280;38637;49.984;20.426;2023-05-20T02:02:32;100211.41;;;11.38;100.00
52745;BME280;38637;49.984;20.426;2023-05-20T02:04:57;100206.78;;;11.38;100.00
52745;BME280;38637;49.984;20.426;2023-05-20T02:07:22;100204.88;;;11.39;100.00
52745;BME280;38637;49.984;20.426;2023-05-20T02:09:47;100208.78;;;11.43;100.00
52745;BME280;38637;49.984;20.426;2023-05-20T02:12:13;100205.22;;;11.42;100.00
52745;BME280;38637;49.984;20.426;2023-05-20T02:14:42;100205.22;;;11.42;100.00
52745;BME280;38637;49.984;20.426;2023-05-20T02:17:07;100208.44;;;11.39;100.00
52745;BME280;38637;49.984;20.426;2023-05-20T02:19:32;100210.00;;;11.35;100.00
52745;BME280;38637;49.984;20.426;2023-05-20T02:21:58;100205.13;;;11.37;100.00
52745;BME280;38637;49.984;20.426;2023-05-20T02:24:23;100201.22;;;11.33;100.00
52745;BME280;38637;49.984;20.426;2023-05-20T02:26:48;100209.66;;;11.32;100.00
52745;BME280;38637;49.984;20.426;2023-05-20T02:29:15;100215.97;;;11.32;100.00
52745;BME280;38637;49.984;20.426;2023-05-20T02:31:40;100205.50;;;11.29;100.00
52745;BME280;38637;49.984;20.426;2023-05-20T02:34:05;100211.84;;;11.30;100.00
52745;BME280;38637;49.984;20.426;2023-05-20T02:36:30;100214.56;;;11.30;100.00
52745;BME280;38637;49.984;20.426;2023-05-20T02:38:56;100214.81;;;11.28;100.00
52745;BME280;38637;49.984;20.426;2023-05-20T02:41:21;100222.19;;;11.27;100.00
52745;BME280;38637;49.984;20.426;2023-05-20T02:43:47;100223.34;;;11.32;100.00
52745;BME280;38637;49.984;20.426;2023-05-20T02:46:12;100220.25;;;11.28;100.00
52745;BME280;38637;49.984;20.426;2023-05-20T02:48:37;100223.00;;;11.28;100.00
52745;BME280;38637;49.984;20.426;2023-05-20T02:51:02;100213.72;;;11.29;100.00
52745;BME280;38637;49.984;20.426;2023-05-20T02:53:27;100221.34;;;11.27;100.00
52745;BME280;38637;49.984;20.426;2023-05-20T02:55:53;100224.31;;;11.25;100.00
52745;BME280;38637;49.984;20.426;2023-05-20T02:58:18;100221.50;;;11.20;100.00
52745;BME280;38637;49.984;20.426;2023-05-20T03:00:43;100227.06;;;11.25;100.00
52745;BME280;38637;49.984;20.426;2023-05-20T03:03:09;100217.78;;;11.26;100.00
52745;BME280;38637;49.984;20.426;2023-05-20T03:05:35;100214.81;;;11.28;100.00
52745;BME280;38637;49.984;20.426;2023-05-20T03:08:06;100213.47;;;11.31;100.00
52745;BME280;38637;49.984;20.426;2023-05-20T03:10:33;100225.25;;;11.31;100.00
52745;BME280;38637;49.984;20.426;2023-05-20T03:12:58;100214.41;;;11.36;100.00
52745;BME280;38637;49.984;20.426;2023-05-20T03:15:23;100224.25;;;11.37;100.00
52745;BME280;38637;49.984;20.426;2023-05-20T03:17:49;100227.59;;;11.39;100.00
52745;BME280;38637;49.984;20.426;2023-05-20T03:20:14;100236.94;;;11.43;100.00
52745;BME280;38637;49.984;20.426;2023-05-20T03:22:40;100232.06;;;11.45;100.00
52745;BME280;38637;49.984;20.426;2023-05-20T03:25:05;100226.59;;;11.45;100.00
52745;BME280;38637;49.984;20.426;2023-05-20T03:27:31;100225.53;;;11.46;100.00
52745;BME280;38637;49.984;20.426;2023-05-20T03:29:56;100237.06;;;11.48;100.00
52745;BME280;38637;49.984;20.426;2023-05-20T03:32:21;100235.88;;;11.44;100.00
52745;BME280;38637;49.984;20.426;2023-05-20T03:34:47;100232.06;;;11.45;100.00
52745;BME280;38637;49.984;20.426;2023-05-20T03:37:12;100228.16;;;11.41;100.00
52745;BME280;38637;49.984;20.426;2023-05-20T03:39:37;100230.06;;;11.41;100.00
52745;BME280;38637;49.984;20.426;2023-05-20T03:42:03;100218.97;;;11.47;100.00
52745;BME280;38637;49.984;20.426;2023-05-20T03:44:29;100226.13;;;11.48;100.00
52745;BME280;38637;49.984;20.426;2023-05-20T03:46:54;100219.47;;;11.44;100.00
52745;BME280;38637;49.984;20.426;2023-05-20T03:49:19;100231.97;;;11.40;100.00
52745;BME280;38637;49.984;20.426;2023-05-20T03:51:45;100238.53;;;11.39;100.00
52745;BME280;38637;49.984;20.426;2023-05-20T03:54:10;100228.75;;;11.43;100.00
52745;BME280;38637;49.984;20.426;2023-05-20T03:56:35;100233.41;;;11.43;100.00
52745;BME280;38637;49.984;20.426;2023-05-20T03:59:01;100224.94;;;11.44;100.00
52745;BME280;38637;49.984;20.426;2023-05-20T04:01:26;100232.47;;;11.37;100.00
52745;BME280;38637;49.984;20.426;2023-05-20T04:03:51;100228.91;;;11.37;100.00
52745;BME280;38637;49.984;20.426;2023-05-20T04:06:16;100228.41;;;11.40;100.00
52745;BME280;38637;49.984;20.426;2023-05-20T04:08:42;100227.09;;;11.42;100.00
52745;BME280;38637;49.984;20.426;2023-05-20T04:11:07;100226.34;;;11.47;100.00
52745;BME280;38637;49.984;20.426;2023-05-20T04:13:32;100224.78;;;11.51;100.00
52745;BME280;38637;49.984;20.426;2023-05-20T04:15:57;100225.94;;;11.55;100.00
52745;BME280;38637;49.984;20.426;2023-05-20T04:18:25;100222.94;;;11.57;100.00
52745;BME280;38637;49.984;20.426;2023-05-20T04:20:54;100236.13;;;11.43;100.00
52745;BME280;38637;49.984;20.426;2023-05-20T04:23:20;100233.63;;;11.41;100.00
52745;BME280;38637;49.984;20.426;2023-05-20T04:25:45;100220.53;;;11.43;100.00
52745;BME280;38637;49.984;20.426;2023-05-20T04:28:11;100216.72;;;11.44;100.00
52745;BME280;38637;49.984;20.426;2023-05-20T04:30:38;100226.34;;;11.47;100.00
52745;BME280;38637;49.984;20.426;2023-05-20T04:33:03;100228.34;;;11.52;100.00
52745;BME280;38637;49.984;20.426;2023-05-20T04:35:28;100221.91;;;11.58;100.00
52745;BME280;38637;49.984;20.426;2023-05-20T04:37:53;100231.03;;;11.63;100.00
52745;BME280;38637;49.984;20.426;2023-05-20T04:40:19;100223.66;;;11.64;100.00
52745;BME280;38637;49.984;20.426;2023-05-20T04:42:45;100222.38;;;11.71;100.00
52745;BME280;38637;49.984;20.426;2023-05-20T04:45:10;100226.81;;;11.72;100.00
52745;BME280;38637;49.984;20.426;2023-05-20T04:47:36;100234.16;;;11.72;100.00
52745;BME280;38637;49.984;20.426;2023-05-20T04:50:04;100227.13;;;11.76;100.00
52745;BME280;38637;49.984;20.426;2023-05-20T04:52:29;100222.31;;;11.83;100.00
52745;BME280;38637;49.984;20.426;2023-05-20T04:54:54;100229.81;;;11.88;100.00
52745;BME280;38637;49.984;20.426;2023-05-20T04:57:22;100218.69;;;11.94;100.00
52745;BME280;38637;49.984;20.426;2023-05-20T04:59:47;100222.59;;;11.99;100.00
52745;BME280;38637;49.984;20.426;2023-05-20T05:02:12;100214.38;;;11.99;100.00
52745;BME280;38637;49.984;20.426;2023-05-20T05:04:38;100223.91;;;11.96;100.00
52745;BME280;38637;49.984;20.426;2023-05-20T05:07:03;100228.31;;;11.97;100.00
52745;BME280;38637;49.984;20.426;2023-05-20T05:09:29;100222.34;;;12.00;100.00
52745;BME280;38637;49.984;20.426;2023-05-20T05:11:54;100226.31;;;12.09;100.00
52745;BME280;38637;49.984;20.426;2023-05-20T05:14:19;100226.38;;;12.14;100.00
52745;BME280;38637;49.984;20.426;2023-05-20T05:16:45;100220.16;;;12.19;100.00
52745;BME280;38637;49.984;20.426;2023-05-20T05:19:10;100218.50;;;12.18;100.00
52745;BME280;38637;49.984;20.426;2023-05-20T05:21:35;100220.88;;;12.31;100.00
52745;BME280;38637;49.984;20.426;2023-05-20T05:24:00;100223.19;;;12.39;100.00
52745;BME280;38637;49.984;20.426;2023-05-20T05:26:26;100219.69;;;12.44;100.00
52745;BME280;38637;49.984;20.426;2023-05-20T05:28:53;100230.22;;;12.52;100.00
52745;BME280;38637;49.984;20.426;2023-05-20T05:31:18;100227.84;;;12.39;100.00
52745;BME280;38637;49.984;20.426;2023-05-20T05:33:43;100226.38;;;12.53;100.00
52745;BME280;38637;49.984;20.426;2023-05-20T05:36:08;100226.28;;;12.65;100.00
52745;BME280;38637;49.984;20.426;2023-05-20T05:38:33;100232.97;;;12.74;100.00
52745;BME280;38637;49.984;20.426;2023-05-20T05:40:59;100227.28;;;12.81;100.00
52745;BME280;38637;49.984;20.426;2023-05-20T05:43:24;100223.53;;;12.87;100.00
52745;BME280;38637;49.984;20.426;2023-05-20T05:45:49;100228.50;;;12.90;100.00
52745;BME280;38637;49.984;20.426;2023-05-20T05:48:14;100223.09;;;12.95;100.00
52745;BME280;38637;49.984;20.426;2023-05-20T05:50:42;100231.34;;;13.00;100.00
52745;BME280;38637;49.984;20.426;2023-05-20T05:53:08;100238.31;;;13.08;100.00
52745;BME280;38637;49.984;20.426;2023-05-20T05:55:33;100237.78;;;13.11;100.00
52745;BME280;38637;49.984;20.426;2023-05-20T05:57:58;100241.13;;;13.13;100.00
52745;BME280;38637;49.984;20.426;2023-05-20T06:00:23;100239.56;;;13.22;100.00
52745;BME280;38637;49.984;20.426;2023-05-20T06:02:48;100238.31;;;13.30;100.00
52745;BME280;38637;49.984;20.426;2023-05-20T06:05:14;100237.06;;;13.43;100.00
52745;BME280;38637;49.984;20.426;2023-05-20T06:07:39;100239.56;;;13.44;100.00
52745;BME280;38637;49.984;20.426;2023-05-20T06:10:04;100239.03;;;13.47;100.00
52745;BME280;38637;49.984;20.426;2023-05-20T06:12:30;100239.34;;;13.51;100.00
52745;BME280;38637;49.984;20.426;2023-05-20T06:14:55;100244.25;;;13.49;100.00
52745;BME280;38637;49.984;20.426;2023-05-20T06:17:20;100239.28;;;13.46;100.00
52745;BME280;38637;49.984;20.426;2023-05-20T06:19:45;100241.19;;;13.45;100.00
52745;BME280;38637;49.984;20.426;2023-05-20T06:22:11;100241.13;;;13.40;100.00
52745;BME280;38637;49.984;20.426;2023-05-20T06:24:36;100239.56;;;13.44;100.00
52745;BME280;38637;49.984;20.426;2023-05-20T06:27:01;100230.59;;;13.54;100.00
52745;BME280;38637;49.984;20.426;2023-05-20T06:29:27;100230.44;;;13.66;100.00
52745;BME280;38637;49.984;20.426;2023-05-20T06:31:53;100243.28;;;13.60;100.00
52745;BME280;38637;49.984;20.426;2023-05-20T06:34:18;100243.06;;;13.67;100.00
52745;BME280;38637;49.984;20.426;2023-05-20T06:36:43;100240.38;;;13.72;100.00
52745;BME280;38637;49.984;20.426;2023-05-20T06:39:08;100220.00;;;13.68;100.00
52745;BME280;38637;49.984;20.426;2023-05-20T06:41:37;100243.78;;;13.89;100.00
52745;BME280;38637;49.984;20.426;2023-05-20T06:44:02;100244.31;;;13.86;100.00
52745;BME280;38637;49.984;20.426;2023-05-20T06:46:27;100245.72;;;13.89;100.00
52745;BME280;38637;49.984;20.426;2023-05-20T06:48:52;100244.44;;;14.01;100.00
52745;BME280;38637;49.984;20.426;2023-05-20T06:51:18;100218.31;;;13.94;100.00
52745;BME280;38637;49.984;20.426;2023-05-20T06:53:43;100243.72;;;14.16;100.00
52745;BME280;38637;49.984;20.426;2023-05-20T06:56:08;100240.19;;;14.21;100.00
52745;BME280;38637;49.984;20.426;2023-05-20T06:58:33;100243.47;;;14.23;100.00
52745;BME280;38637;49.984;20.426;2023-05-20T07:00:58;100240.50;;;14.24;100.00
52745;BME280;38637;49.984;20.426;2023-05-20T07:03:24;100234.16;;;14.24;100.00
52745;BME280;38637;49.984;20.426;2023-05-20T07:05:49;100226.47;;;14.26;100.00
52745;BME280;38637;49.984;20.426;2023-05-20T07:08:14;100231.72;;;14.28;100.00
52745;BME280;38637;49.984;20.426;2023-05-20T07:10:40;100230.84;;;14.22;100.00
52745;BME280;38637;49.984;20.426;2023-05-20T07:13:05;100229.25;;;14.31;100.00
52745;BME280;38637;49.984;20.426;2023-05-20T07:15:30;100227.88;;;14.29;100.00
52745;BME280;38637;49.984;20.426;2023-05-20T07:17:55;100219.09;;;14.32;100.00
52745;BME280;38637;49.984;20.426;2023-05-20T07:20:20;100222.66;;;14.32;100.00
52745;BME280;38637;49.984;20.426;2023-05-20T07:22:46;100213.34;;;14.33;100.00
52745;BME280;38637;49.984;20.426;2023-05-20T07:25:13;100217.25;;;14.47;100.00
52745;BME280;38637;49.984;20.426;2023-05-20T07:27:38;100212.13;;;14.56;100.00
52745;BME280;38637;49.984;20.426;2023-05-20T07:30:03;100206.09;;;14.54;100.00
52745;BME280;38637;49.984;20.426;2023-05-20T07:32:29;100203.78;;;14.46;100.00
52745;BME280;38637;49.984;20.426;2023-05-20T07:34:54;100206.78;;;14.44;100.00
52745;BME280;38637;49.984;20.426;2023-05-20T07:37:19;100204.91;;;14.50;100.00
52745;BME280;38637;49.984;20.426;2023-05-20T07:39:45;100214.31;;;14.59;100.00
52745;BME280;38637;49.984;20.426;2023-05-20T07:42:10;100206.09;;;14.59;100.00
52745;BME280;38637;49.984;20.426;2023-05-20T07:44:35;100212.69;;;14.58;100.00
52745;BME280;38637;49.984;20.426;2023-05-20T07:47:00;100215.47;;;14.63;100.00
52745;BME280;38637;49.984;20.426;2023-05-20T07:49:26;100208.06;;;14.74;100.00
52745;BME280;38637;49.984;20.426;2023-05-20T07:51:51;100208.38;;;14.83;100.00
52745;BME280;38637;49.984;20.426;2023-05-20T07:54:16;100210.31;;;14.82;100.00
52745;BME280;38637;49.984;20.426;2023-05-20T07:56:41;100203.97;;;14.77;100.00
52745;BME280;38637;49.984;20.426;2023-05-20T07:59:06;100190.47;;;14.75;100.00
52745;BME280;38637;49.984;20.426;2023-05-20T08:01:32;100193.56;;;14.89;100.00
52745;BME280;38637;49.984;20.426;2023-05-20T08:03:57;100194.34;;;14.79;100.00
52745;BME280;38637;49.984;20.426;2023-05-20T08:06:22;100195.47;;;14.83;100.00
52745;BME280;38637;49.984;20.426;2023-05-20T08:08:50;100193.50;;;14.74;100.00
52745;BME280;38637;49.984;20.426;2023-05-20T08:11:18;100190.56;;;14.96;100.00
52745;BME280;38637;49.984;20.426;2023-05-20T08:13:43;100191.16;;;15.13;100.00
52745;BME280;38637;49.984;20.426;2023-05-20T08:16:09;100186.50;;;15.29;100.00
52745;BME280;38637;49.984;20.426;2023-05-20T08:18:34;100188.75;;;15.52;100.00
52745;BME280;38637;49.984;20.426;2023-05-20T08:21:03;100187.38;;;15.65;100.00
52745;BME280;38637;49.984;20.426;2023-05-20T08:23:29;100190.13;;;15.65;100.00
52745;BME280;38637;49.984;20.426;2023-05-20T08:25:54;100189.59;;;15.83;100.00
52745;BME280;38637;49.984;20.426;2023-05-20T08:28:21;100190.41;;;15.79;99.50
52745;BME280;38637;49.984;20.426;2023-05-20T08:30:46;100187.66;;;15.79;100.00
52745;BME280;38637;49.984;20.426;2023-05-20T08:33:12;100198.13;;;15.87;100.00
52745;BME280;38637;49.984;20.426;2023-05-20T08:35:37;100190.66;;;16.08;99.09
52745;BME280;38637;49.984;20.426;2023-05-20T08:38:04;100189.81;;;16.13;97.51
52745;BME280;38637;49.984;20.426;2023-05-20T08:40:29;100185.44;;;16.12;97.50
52745;BME280;38637;49.984;20.426;2023-05-20T08:42:55;100182.06;;;16.35;97.62
52745;BME280;38637;49.984;20.426;2023-05-20T08:45:22;100185.59;;;16.56;97.29
52745;BME280;38637;49.984;20.426;2023-05-20T08:47:51;100188.84;;;16.68;95.84
52745;BME280;38637;49.984;20.426;2023-05-20T08:50:17;100188.47;;;16.95;94.67
52745;BME280;38637;49.984;20.426;2023-05-20T08:52:43;100182.84;;;17.16;94.29
52745;BME280;38637;49.984;20.426;2023-05-20T08:55:14;100178.34;;;17.25;92.97
52745;BME280;38637;49.984;20.426;2023-05-20T08:57:40;100188.25;;;17.31;92.58
52745;BME280;38637;49.984;20.426;2023-05-20T09:00:06;100190.47;;;17.29;90.60
52745;BME280;38637;49.984;20.426;2023-05-20T09:02:37;100187.47;;;17.26;91.88
52745;BME280;38637;49.984;20.426;2023-05-20T09:05:02;100189.38;;;17.30;91.43
52745;BME280;38637;49.984;20.426;2023-05-20T09:07:29;100182.47;;;17.33;90.97
52745;BME280;38637;49.984;20.426;2023-05-20T09:09:54;100180.78;;;17.37;90.93
52745;BME280;38637;49.984;20.426;2023-05-20T09:12:20;100179.25;;;17.55;90.11
52745;BME280;38637;49.984;20.426;2023-05-20T09:14:46;100187.00;;;17.87;88.84
52745;BME280;38637;49.984;20.426;2023-05-20T09:17:11;100177.59;;;18.17;87.98
52745;BME280;38637;49.984;20.426;2023-05-20T09:19:37;100175.84;;;18.26;86.65
52745;BME280;38637;49.984;20.426;2023-05-20T09:22:02;100186.28;;;18.34;86.16
52745;BME280;38637;49.984;20.426;2023-05-20T09:24:27;100174.03;;;18.41;85.54
52745;BME280;38637;49.984;20.426;2023-05-20T09:26:53;100174.03;;;18.41;84.70
52745;BME280;38637;49.984;20.426;2023-05-20T09:29:18;100178.97;;;18.20;83.59
52745;BME280;38637;49.984;20.426;2023-05-20T09:31:45;100176.81;;;18.41;85.27
52745;BME280;38637;49.984;20.426;2023-05-20T09:34:11;100169.56;;;18.45;83.32
52745;BME280;38637;49.984;20.426;2023-05-20T09:36:36;100165.94;;;18.49;82.39
52745;BME280;38637;49.984;20.426;2023-05-20T09:39:03;100161.91;;;18.60;82.92
52745;BME280;38637;49.984;20.426;2023-05-20T09:41:48;100153.19;;;18.72;82.13
52745;BME280;38637;49.984;20.426;2023-05-20T09:44:17;100157.19;;;18.85;80.32
52745;BME280;38637;49.984;20.426;2023-05-20T09:46:43;100155.31;;;18.80;80.42
52745;BME280;38637;49.984;20.426;2023-05-20T09:49:10;100157.91;;;18.72;81.13
52745;BME280;38637;49.984;20.426;2023-05-20T09:51:35;100161.47;;;18.72;81.64
52745;BME280;38637;49.984;20.426;2023-05-20T09:54:01;100160.13;;;18.70;81.75
52745;BME280;38637;49.984;20.426;2023-05-20T09:56:27;100158.38;;;18.79;81.89
52745;BME280;38637;49.984;20.426;2023-05-20T09:58:53;100161.03;;;18.89;80.52
52745;BME280;38637;49.984;20.426;2023-05-20T10:01:22;100163.50;;;19.10;79.82
52745;BME280;38637;49.984;20.426;2023-05-20T10:03:47;100163.03;;;19.21;79.65
52745;BME280;38637;49.984;20.426;2023-05-20T10:21:14;100152.88;;;20.01;74.32
52745;BME280;38637;49.984;20.426;2023-05-20T10:23:39;100142.34;;;20.31;73.79
52745;BME280;38637;49.984;20.426;2023-05-20T10:26:05;100154.78;;;20.33;71.75
52745;BME280;38637;49.984;20.426;2023-05-20T10:28:32;100152.63;;;20.30;71.88
52745;BME280;38637;49.984;20.426;2023-05-20T10:30:58;100147.88;;;20.44;72.12
52745;BME280;38637;49.984;20.426;2023-05-20T10:33:24;100146.97;;;20.49;70.56
52745;BME280;38637;49.984;20.426;2023-05-20T10:35:50;100143.00;;;20.55;70.54
52745;BME280;38637;49.984;20.426;2023-05-20T10:38:16;100143.81;;;20.56;70.93
52745;BME280;38637;49.984;20.426;2023-05-20T10:40:42;100130.50;;;20.80;70.63
52745;BME280;38637;49.984;20.426;2023-05-20T10:43:08;100136.16;;;20.89;70.08
52745;BME280;38637;49.984;20.426;2023-05-20T10:45:33;100130.00;;;21.15;69.16
52745;BME280;38637;49.984;20.426;2023-05-20T10:48:01;100133.34;;;21.39;68.41
52745;BME280;38637;49.984;20.426;2023-05-20T10:50:35;100125.66;;;21.59;67.89
52745;BME280;38637;49.984;20.426;2023-05-20T10:53:04;100121.31;;;21.75;67.22
52745;BME280;38637;49.984;20.426;2023-05-20T10:55:39;100127.66;;;21.67;66.91
52745;BME280;38637;49.984;20.426;2023-05-20T10:58:05;100128.03;;;21.51;66.71
52745;BME280;38637;49.984;20.426;2023-05-20T11:00:34;100125.69;;;21.08;67.65
52745;BME280;38637;49.984;20.426;2023-05-20T11:03:03;100126.00;;;20.57;69.45
52745;BME280;38637;49.984;20.426;2023-05-20T11:05:29;100113.56;;;20.40;70.75
52745;BME280;38637;49.984;20.426;2023-05-20T11:08:01;100111.59;;;20.41;71.01
52745;BME280;38637;49.984;20.426;2023-05-20T11:10:27;100110.59;;;20.37;70.79
52745;BME280;38637;49.984;20.426;2023-05-20T11:12:52;100106.25;;;20.44;71.56
52745;BME280;38637;49.984;20.426;2023-05-20T11:15:17;100096.75;;;20.87;71.09
52745;BME280;38637;49.984;20.426;2023-05-20T11:20:18;100089.97;;;20.93;70.35
52745;BME280;38637;49.984;20.426;2023-05-20T11:22:43;100089.75;;;21.03;70.04
52745;BME280;38637;49.984;20.426;2023-05-20T11:25:09;100091.81;;;21.20;70.51
52745;BME280;38637;49.984;20.426;2023-05-20T11:27:35;100086.81;;;21.08;69.25
52745;BME280;38637;49.984;20.426;2023-05-20T11:30:03;100083.38;;;20.53;72.69
52745;BME280;38637;49.984;20.426;2023-05-20T11:32:29;100077.59;;;20.08;74.11
52745;BME280;38637;49.984;20.426;2023-05-20T11:34:55;100074.94;;;19.89;74.77
52745;BME280;38637;49.984;20.426;2023-05-20T11:37:20;100071.84;;;19.77;75.89
52745;BME280;38637;49.984;20.426;2023-05-20T11:39:47;100070.75;;;19.59;77.10
52745;BME280;38637;49.984;20.426;2023-05-20T11:42:13;100063.63;;;19.71;75.59
52745;BME280;38637;49.984;20.426;2023-05-20T11:44:41;100071.13;;;19.85;75.98
52745;BME280;38637;49.984;20.426;2023-05-20T11:47:08;100062.03;;;20.12;75.24
52745;BME280;38637;49.984;20.426;2023-05-20T11:49:38;100054.78;;;20.38;75.18
52745;BME280;38637;49.984;20.426;2023-05-20T11:52:03;100058.41;;;20.53;74.18
52745;BME280;38637;49.984;20.426;2023-05-20T11:54:29;100049.66;;;20.46;74.73
52745;BME280;38637;49.984;20.426;2023-05-20T11:56:54;100055.41;;;20.49;74.29
52745;BME280;38637;49.984;20.426;2023-05-20T11:59:22;100064.03;;;20.48;73.73
52745;BME280;38637;49.984;20.426;2023-05-20T12:01:47;100055.41;;;20.63;72.97
52745;BME280;38637;49.984;20.426;2023-05-20T12:04:13;100051.50;;;20.50;72.88
52745;BME280;38637;49.984;20.426;2023-05-20T12:06:38;100058.50;;;20.34;74.17
52745;BME280;38637;49.984;20.426;2023-05-20T12:09:04;100045.69;;;20.24;75.54
52745;BME280;38637;49.984;20.426;2023-05-20T12:11:34;100053.06;;;20.29;75.49
52745;BME280;38637;49.984;20.426;2023-05-20T12:14:00;100040.53;;;20.31;75.81
52745;BME280;38637;49.984;20.426;2023-05-20T12:16:25;100051.94;;;20.30;75.70
52745;BME280;38637;49.984;20.426;2023-05-20T12:18:50;100037.66;;;20.36;75.51
52745;BME280;38637;49.984;20.426;2023-05-20T12:21:15;100036.84;;;20.36;75.21
52745;BME280;38637;49.984;20.426;2023-05-20T12:23:40;100040.84;;;20.30;74.82
52745;BME280;38637;49.984;20.426;2023-05-20T12:26:06;100019.88;;;20.37;75.38
52745;BME280;38637;49.984;20.426;2023-05-20T12:28:31;100035.50;;;20.33;74.51
52745;BME280;38637;49.984;20.426;2023-05-20T12:30:57;100016.19;;;20.42;74.67
52745;BME280;38637;49.984;20.426;2023-05-20T12:33:22;100014.00;;;20.53;74.97
52745;BME280;38637;49.984;20.426;2023-05-20T12:35:47;100015.72;;;20.62;74.80
52745;BME280;38637;49.984;20.426;2023-05-20T12:38:14;100007.72;;;20.61;74.44
52745;BME280;38637;49.984;20.426;2023-05-20T12:40:39;100004.88;;;20.75;74.66
52745;BME280;38637;49.984;20.426;2023-05-20T12:43:04;100002.25;;;20.92;74.38